createdAt,value
2016-11-28T00:00:18.855Z,998.42
2016-11-28T00:01:28.927Z,998.48
2016-11-28T00:02:38.964Z,998.4
2016-11-28T00:03:48.991Z,998.46
2016-11-28T00:04:58.467Z,998.49
2016-11-28T00:06:08.859Z,998.46
2016-11-28T00:07:18.894Z,998.5
2016-11-28T00:08:29.254Z,998.47
2016-11-28T00:09:38.990Z,998.49
2016-11-28T00:10:49.042Z,998.49
2016-11-28T00:11:59.420Z,998.49
2016-11-28T00:13:09.173Z,998.52
2016-11-28T00:14:19.511Z,998.5
2016-11-28T00:15:29.259Z,998.48
2016-11-28T00:16:38.965Z,998.52
2016-11-28T00:17:49.292Z,998.54
2016-11-28T00:18:59.330Z,998.54
2016-11-28T00:20:09.332Z,998.6
2016-11-28T00:21:18.719Z,998.59
2016-11-28T00:22:29.045Z,998.58
2016-11-28T00:23:39.367Z,998.59
2016-11-28T00:24:49.387Z,998.7
2016-11-28T00:25:59.399Z,998.6
2016-11-28T00:27:09.725Z,998.65
2016-11-28T00:28:20.061Z,998.75
2016-11-28T00:29:30.076Z,998.64
2016-11-28T00:30:40.408Z,998.68
2016-11-28T00:31:50.732Z,998.74
2016-11-28T00:33:00.464Z,998.74
2016-11-28T00:34:10.791Z,998.74
2016-11-28T00:35:20.818Z,998.71
2016-11-28T00:36:31.149Z,998.73
2016-11-28T00:37:41.505Z,998.78
2016-11-28T00:38:51.532Z,998.75
2016-11-28T00:40:01.551Z,998.74
2016-11-28T00:41:11.566Z,998.81
2016-11-28T00:42:20.973Z,998.76
2016-11-28T00:43:31.290Z,998.75
2016-11-28T00:44:40.997Z,998.76
2016-11-28T00:45:51.338Z,998.84
2016-11-28T00:47:01.684Z,998.81
2016-11-28T00:48:12.006Z,998.88
2016-11-28T00:49:21.389Z,998.86
2016-11-28T00:50:31.710Z,998.85
2016-11-28T00:51:41.721Z,998.9
2016-11-28T00:52:51.748Z,998.92
2016-11-28T00:54:02.076Z,998.96
2016-11-28T00:55:12.086Z,998.87
2016-11-28T00:56:22.103Z,998.86
2016-11-28T00:57:31.821Z,998.86
2016-11-28T00:58:41.540Z,998.96
2016-11-28T00:59:51.882Z,998.98
2016-11-28T01:01:01.920Z,999.07
2016-11-28T01:02:12.251Z,998.92
2016-11-28T01:03:21.657Z,998.96
2016-11-28T01:04:31.698Z,998.9
2016-11-28T01:05:41.711Z,998.91
2016-11-28T01:06:51.127Z,998.89
2016-11-28T01:08:01.454Z,998.89
2016-11-28T01:09:11.480Z,998.89
2016-11-28T01:10:21.800Z,998.95
2016-11-28T01:11:31.814Z,998.92
2016-11-28T01:12:41.833Z,998.9
2016-11-28T01:13:52.161Z,998.9
2016-11-28T01:15:02.498Z,998.93
2016-11-28T01:16:12.515Z,998.96
2016-11-28T01:17:22.846Z,998.87
2016-11-28T01:18:32.854Z,998.93
2016-11-28T01:19:43.169Z,998.93
2016-11-28T01:20:53.503Z,998.89
2016-11-28T01:22:03.872Z,998.97
2016-11-28T01:23:13.895Z,999.01
2016-11-28T01:24:24.226Z,999.05
2016-11-28T01:25:34.233Z,998.96
2016-11-28T01:26:44.254Z,999.04
2016-11-28T01:27:54.281Z,998.97
2016-11-28T01:29:03.987Z,999.03
2016-11-28T01:30:14.324Z,999.05
2016-11-28T01:31:24.326Z,998.99
2016-11-28T01:32:34.335Z,998.98
2016-11-28T01:33:44.650Z,998.99
2016-11-28T01:34:54.985Z,999.01
2016-11-28T01:36:05.008Z,999.02
2016-11-28T01:37:15.384Z,999.06
2016-11-28T01:38:25.710Z,999.01
2016-11-28T01:39:35.434Z,999.01
2016-11-28T01:40:45.749Z,999.04
2016-11-28T01:41:55.776Z,999.04
2016-11-28T01:43:06.102Z,999.07
2016-11-28T01:44:16.414Z,999.09
2016-11-28T01:45:26.467Z,999.04
2016-11-28T01:46:36.477Z,999.05
2016-11-28T01:47:46.799Z,999.07
2016-11-28T01:48:56.820Z,999.11
2016-11-28T01:50:06.844Z,999.06
2016-11-28T01:51:16.854Z,999.01
2016-11-28T01:52:26.880Z,999.01
2016-11-28T01:53:36.913Z,998.99
2016-11-28T01:54:47.245Z,998.97
2016-11-28T01:55:57.258Z,999
2016-11-28T01:57:06.967Z,999.03
2016-11-28T01:58:17.349Z,999.05
2016-11-28T01:59:27.087Z,998.99
2016-11-28T02:00:36.792Z,999.01
2016-11-28T02:01:46.500Z,999.04
2016-11-28T02:02:55.897Z,999.02
2016-11-28T02:04:05.897Z,998.97
2016-11-28T02:05:16.235Z,998.97
2016-11-28T02:06:26.561Z,999.01
2016-11-28T02:07:36.569Z,999.01
2016-11-28T02:08:46.909Z,999.04
2016-11-28T02:09:56.948Z,998.97
2016-11-28T02:11:07.272Z,998.88
2016-11-28T02:12:17.281Z,999.01
2016-11-28T02:13:27.305Z,999.04
2016-11-28T02:14:37.319Z,999.08
2016-11-28T02:15:47.349Z,998.99
2016-11-28T02:16:57.685Z,999.01
2016-11-28T02:18:07.384Z,999.02
2016-11-28T02:19:17.716Z,999.02
2016-11-28T02:20:27.739Z,999.11
2016-11-28T02:21:38.067Z,999.12
2016-11-28T02:22:48.403Z,999.11
2016-11-28T02:23:58.425Z,999.06
2016-11-28T02:25:08.439Z,999.11
2016-11-28T02:26:18.164Z,999.1
2016-11-28T02:27:28.176Z,999.08
2016-11-28T02:28:38.184Z,999.11
2016-11-28T02:29:48.504Z,999.16
2016-11-28T02:30:58.522Z,999.14
2016-11-28T02:32:08.844Z,999.11
2016-11-28T02:33:19.169Z,999.12
2016-11-28T02:34:29.491Z,999.14
2016-11-28T02:35:39.804Z,999.16
2016-11-28T02:36:50.149Z,999.14
2016-11-28T02:37:59.853Z,999.15
2016-11-28T02:39:09.253Z,999.15
2016-11-28T02:40:19.586Z,999.16
2016-11-28T02:41:29.903Z,999.17
2016-11-28T02:42:39.923Z,999.14
2016-11-28T02:43:49.933Z,999.12
2016-11-28T02:45:00.268Z,999.13
2016-11-28T02:46:10.600Z,999.14
2016-11-28T02:47:20.926Z,999.16
2016-11-28T02:48:30.969Z,999.16
2016-11-28T02:49:40.984Z,999.06
2016-11-28T02:50:50.996Z,999.11
2016-11-28T02:52:01.321Z,999.08
2016-11-28T02:53:11.648Z,999.09
2016-11-28T02:54:21.661Z,999.07
2016-11-28T02:55:31.979Z,999.07
2016-11-28T02:56:42.302Z,999.02
2016-11-28T02:57:52.636Z,999.08
2016-11-28T02:59:02.956Z,999.11
2016-11-28T03:00:13.291Z,999.13
2016-11-28T03:32:07.600Z,999.52
2016-11-28T03:33:17.916Z,999.54
2016-11-28T03:34:28.234Z,999.47
2016-11-28T03:35:38.564Z,999.57
2016-11-28T03:36:48.878Z,999.5
2016-11-28T03:37:58.570Z,999.58
2016-11-28T03:39:08.905Z,999.61
2016-11-28T03:40:18.909Z,999.59
2016-11-28T03:41:28.923Z,999.64
2016-11-28T03:42:38.631Z,999.67
2016-11-28T03:43:48.017Z,999.65
2016-11-28T03:44:57.717Z,999.66
2016-11-28T03:46:07.421Z,999.78
2016-11-28T03:47:17.764Z,999.7
2016-11-28T03:48:28.090Z,999.71
2016-11-28T03:49:38.090Z,999.7
2016-11-28T03:50:48.106Z,999.72
2016-11-28T03:51:58.440Z,999.76
2016-11-28T03:53:08.775Z,999.75
2016-11-28T03:54:19.093Z,999.8
2016-11-28T03:55:29.119Z,999.8
2016-11-28T03:56:39.140Z,999.83
2016-11-28T03:57:49.498Z,999.89
2016-11-28T03:58:59.194Z,999.93
2016-11-28T04:00:09.212Z,999.99
2016-11-28T04:01:19.542Z,999.96
2016-11-28T04:02:29.240Z,999.99
2016-11-28T04:03:38.945Z,1000.05
2016-11-28T04:04:48.973Z,1000.03
2016-11-28T04:05:58.988Z,1000.01
2016-11-28T04:07:08.999Z,999.98
2016-11-28T04:08:19.333Z,1000.08
2016-11-28T04:09:29.655Z,1000.07
2016-11-28T04:10:39.980Z,1000.1
2016-11-28T04:11:50.302Z,1000.1
2016-11-28T04:13:00.324Z,1000.06
2016-11-28T04:14:10.350Z,1000.19
2016-11-28T04:15:20.048Z,1000.13
2016-11-28T04:16:29.766Z,1000.18
2016-11-28T04:17:39.785Z,1000.29
2016-11-28T04:18:50.107Z,1000.24
2016-11-28T04:20:00.115Z,1000.27
2016-11-28T04:21:10.166Z,1000.24
2016-11-28T04:22:20.498Z,1000.26
2016-11-28T04:23:30.526Z,1000.27
2016-11-28T04:24:40.862Z,1000.37
2016-11-28T04:25:51.185Z,1000.25
2016-11-28T04:27:01.504Z,1000.3
2016-11-28T04:28:11.517Z,1000.28
2016-11-28T04:29:21.227Z,1000.33
2016-11-28T04:30:31.279Z,1000.37
2016-11-28T04:31:41.291Z,1000.37
2016-11-28T04:32:51.602Z,1000.28
2016-11-28T04:34:01.003Z,1000.38
2016-11-28T04:35:11.002Z,1000.42
2016-11-28T04:36:21.352Z,1000.4
2016-11-28T04:37:31.674Z,1000.47
2016-11-28T04:38:41.706Z,1000.45
2016-11-28T04:39:51.719Z,1000.46
2016-11-28T04:41:02.073Z,1000.56
2016-11-28T04:42:11.776Z,1000.56
2016-11-28T04:43:22.103Z,1000.5
2016-11-28T04:44:32.466Z,1000.59
2016-11-28T04:45:42.156Z,1000.63
2016-11-28T04:46:51.873Z,1000.6
2016-11-28T04:48:02.184Z,1000.61
2016-11-28T04:49:12.501Z,1000.67
2016-11-28T04:50:22.510Z,1000.8
2016-11-28T04:51:32.541Z,1000.76
2016-11-28T04:52:42.881Z,1000.81
2016-11-28T04:53:52.923Z,1000.82
2016-11-28T04:55:02.936Z,1000.81
2016-11-28T04:56:12.957Z,1000.81
2016-11-28T04:57:22.991Z,1000.9
2016-11-28T04:58:33.003Z,1000.92
2016-11-28T04:59:42.699Z,1000.92
2016-11-28T05:00:52.728Z,1000.89
2016-11-28T05:02:02.734Z,1000.97
2016-11-28T05:03:13.081Z,1001.01
2016-11-28T05:04:23.101Z,1000.95
2016-11-28T05:05:33.448Z,1001
2016-11-28T05:06:43.789Z,1001.05
2016-11-28T05:07:54.114Z,1001.06
2016-11-28T05:09:04.144Z,1001.04
2016-11-28T05:10:14.171Z,1001.07
2016-11-28T05:11:24.193Z,1001.07
2016-11-28T05:12:34.196Z,1001.1
2016-11-28T05:13:43.912Z,1001.11
2016-11-28T05:14:54.232Z,1001.11
2016-11-28T05:16:03.959Z,1001.13
2016-11-28T05:17:13.659Z,1001.14
2016-11-28T05:18:23.692Z,1001.15
2016-11-28T05:19:34.025Z,1001.14
2016-11-28T05:20:44.348Z,1001.19
2016-11-28T05:21:54.674Z,1001.15
2016-11-28T05:23:05.004Z,1001.19
2016-11-28T05:24:15.020Z,1001.21
2016-11-28T05:25:25.068Z,1001.25
2016-11-28T05:26:35.419Z,1001.24
2016-11-28T05:27:45.424Z,1001.24
2016-11-28T05:28:55.757Z,1001.29
2016-11-28T05:30:05.771Z,1001.24
2016-11-28T05:31:15.798Z,1001.22
2016-11-28T05:32:26.147Z,1001.25
2016-11-28T05:33:36.465Z,1001.29
2016-11-28T05:34:46.806Z,1001.32
2016-11-28T05:35:57.156Z,1001.3
2016-11-28T05:37:06.854Z,1001.3
2016-11-28T05:38:17.171Z,1001.38
2016-11-28T05:39:27.198Z,1001.32
2016-11-28T05:40:37.526Z,1001.33
2016-11-28T05:41:47.536Z,1001.3
2016-11-28T05:42:57.473Z,1001.33
2016-11-28T05:44:07.804Z,1001.33
2016-11-28T05:45:18.133Z,1001.31
2016-11-28T05:46:27.840Z,1001.31
2016-11-28T05:47:37.850Z,1001.38
2016-11-28T05:48:48.176Z,1001.38
2016-11-28T05:49:58.189Z,1001.46
2016-11-28T05:51:08.204Z,1001.47
2016-11-28T05:52:18.533Z,1001.46
2016-11-28T05:53:28.864Z,1001.46
2016-11-28T05:54:39.211Z,1001.5
2016-11-28T05:55:49.222Z,1001.49
2016-11-28T05:56:59.272Z,1001.5
2016-11-28T05:58:09.292Z,1001.53
2016-11-28T05:59:19.611Z,1001.59
2016-11-28T06:00:29.933Z,1001.6
2016-11-28T06:01:39.951Z,1001.64
2016-11-28T06:02:49.993Z,1001.6
2016-11-28T06:04:00.319Z,1001.69
2016-11-28T06:05:09.704Z,1001.65
2016-11-28T06:06:20.282Z,1001.69
2016-11-28T06:07:30.646Z,1001.74
2016-11-28T06:08:40.665Z,1001.72
2016-11-28T06:09:50.687Z,1001.76
2016-11-28T06:11:00.715Z,1001.74
2016-11-28T06:12:11.049Z,1001.77
2016-11-28T06:13:21.383Z,1001.83
2016-11-28T06:14:31.705Z,1001.82
2016-11-28T06:15:42.031Z,1001.87
2016-11-28T06:16:52.359Z,1001.87
2016-11-28T06:18:02.717Z,1001.88
2016-11-28T06:19:13.037Z,1001.92
2016-11-28T06:20:23.069Z,1001.95
2016-11-28T06:21:33.102Z,1001.95
2016-11-28T06:22:43.419Z,1001.98
2016-11-28T06:23:53.426Z,1001.99
2016-11-28T06:25:03.757Z,1001.98
2016-11-28T06:26:14.126Z,1002.01
2016-11-28T06:27:24.464Z,1002.03
2016-11-28T06:28:34.476Z,1002.01
2016-11-28T06:29:44.493Z,1002.08
2016-11-28T06:30:54.505Z,1002.02
2016-11-28T06:32:04.535Z,1002.06
2016-11-28T06:33:14.547Z,1002.03
2016-11-28T06:34:24.259Z,1002.01
2016-11-28T06:35:34.584Z,1002.04
2016-11-28T06:36:45.021Z,1001.99
2016-11-28T06:37:55.370Z,1002.03
2016-11-28T06:39:05.695Z,1002.06
2016-11-28T06:40:16.017Z,1002.09
2016-11-28T06:41:25.704Z,1002.09
2016-11-28T06:42:36.023Z,1002.11
2016-11-28T06:43:46.333Z,1002.12
2016-11-28T06:44:56.345Z,1002.11
2016-11-28T06:46:06.368Z,1002.16
2016-11-28T06:47:16.069Z,1002.21
2016-11-28T06:48:26.094Z,1002.17
2016-11-28T06:49:36.419Z,1002.24
2016-11-28T06:50:46.783Z,1002.29
2016-11-28T06:51:56.812Z,1002.29
2016-11-28T06:53:06.826Z,1002.35
2016-11-28T06:54:16.843Z,1002.38
2016-11-28T06:55:27.171Z,1002.37
2016-11-28T06:56:36.872Z,1002.41
2016-11-28T06:57:47.200Z,1002.44
2016-11-28T06:58:56.906Z,1002.47
2016-11-28T07:00:07.237Z,1002.46
2016-11-28T07:01:17.558Z,1002.47
2016-11-28T07:02:27.566Z,1002.45
2016-11-28T07:03:37.577Z,1002.43
2016-11-28T07:04:47.285Z,1002.51
2016-11-28T07:05:57.616Z,1002.5
2016-11-28T07:07:07.963Z,1002.56
2016-11-28T07:08:17.980Z,1002.58
2016-11-28T07:09:28.307Z,1002.62
2016-11-28T07:10:38.631Z,1002.65
2016-11-28T07:11:48.970Z,1002.66
2016-11-28T07:12:59.311Z,1002.73
2016-11-28T07:14:09.648Z,1002.77
2016-11-28T07:15:19.980Z,1002.82
2016-11-28T07:16:30.323Z,1002.88
2016-11-28T07:17:40.019Z,1002.86
2016-11-28T07:18:49.739Z,1002.89
2016-11-28T07:19:59.757Z,1002.84
2016-11-28T07:21:09.473Z,1002.93
2016-11-28T07:22:19.495Z,1002.94
2016-11-28T07:23:29.198Z,1003
2016-11-28T07:24:39.214Z,1002.96
2016-11-28T07:25:48.917Z,1002.98
2016-11-28T07:26:59.251Z,1003.03
2016-11-28T07:28:09.299Z,1003
2016-11-28T07:29:19.635Z,1003.01
2016-11-28T07:30:29.679Z,1002.99
2016-11-28T07:31:40.000Z,1003.06
2016-11-28T07:32:50.076Z,1003.12
2016-11-28T07:34:00.402Z,1003.1
2016-11-28T07:35:10.738Z,1003.11
2016-11-28T07:36:21.076Z,1003.13
2016-11-28T07:37:31.410Z,1003.16
2016-11-28T07:38:41.435Z,1003.11
2016-11-28T07:39:51.763Z,1003.25
2016-11-28T07:41:01.792Z,1003.21
2016-11-28T07:42:12.122Z,1003.19
2016-11-28T07:43:22.127Z,1003.24
2016-11-28T07:44:31.213Z,1003.17
2016-11-28T07:45:41.544Z,1003.2
2016-11-28T07:46:51.551Z,1003.17
2016-11-28T07:48:01.870Z,1003.25
2016-11-28T07:49:11.909Z,1003.22
2016-11-28T07:50:21.615Z,1003.27
2016-11-28T07:51:31.319Z,1003.23
2016-11-28T07:52:41.339Z,1003.28
2016-11-28T07:53:51.660Z,1003.25
2016-11-28T07:55:01.409Z,1003.26
2016-11-28T07:56:11.109Z,1003.3
2016-11-28T07:57:20.508Z,1003.26
2016-11-28T07:58:30.903Z,1003.28
2016-11-28T07:59:41.234Z,1003.28
2016-11-28T08:00:50.951Z,1003.21
2016-11-28T08:02:00.968Z,1003.27
2016-11-28T08:03:10.715Z,1003.28
2016-11-28T08:04:20.723Z,1003.24
2016-11-28T08:05:31.068Z,1003.28
2016-11-28T08:06:41.395Z,1003.28
2016-11-28T08:07:51.412Z,1003.31
2016-11-28T08:09:01.453Z,1003.29
2016-11-28T08:10:11.165Z,1003.33
2016-11-28T08:11:21.174Z,1003.33
2016-11-28T08:12:30.873Z,1003.31
2016-11-28T08:13:41.202Z,1003.45
2016-11-28T08:14:50.903Z,1003.33
2016-11-28T08:16:00.643Z,1003.38
2016-11-28T08:17:10.660Z,1003.36
2016-11-28T08:18:20.042Z,1003.42
2016-11-28T08:19:30.054Z,1003.34
2016-11-28T08:20:40.092Z,1003.48
2016-11-28T08:21:50.431Z,1003.35
2016-11-28T08:23:00.443Z,1003.34
2016-11-28T08:24:10.776Z,1003.34
2016-11-28T08:25:21.108Z,1003.38
2016-11-28T08:26:31.149Z,1003.23
2016-11-28T08:27:41.481Z,1003.32
2016-11-28T08:28:51.185Z,1003.26
2016-11-28T08:30:01.541Z,1003.27
2016-11-28T08:31:11.872Z,1003.32
2016-11-28T08:32:21.568Z,1003.38
2016-11-28T08:33:30.974Z,1003.29
2016-11-28T08:34:41.319Z,1003.33
2016-11-28T08:35:51.652Z,1003.41
2016-11-28T08:37:01.994Z,1003.34
2016-11-28T08:38:12.020Z,1003.4
2016-11-28T08:39:22.044Z,1003.33
2016-11-28T08:40:32.368Z,1003.34
2016-11-28T08:41:42.691Z,1003.4
2016-11-28T08:42:52.084Z,1003.45
2016-11-28T08:44:02.409Z,1003.39
2016-11-28T08:45:12.741Z,1003.42
2016-11-28T08:46:22.794Z,1003.35
2016-11-28T08:47:33.130Z,1003.42
2016-11-28T08:48:43.456Z,1003.51
2016-11-28T08:49:53.778Z,1003.5
2016-11-28T08:51:03.486Z,1003.55
2016-11-28T08:52:13.841Z,1003.59
2016-11-28T08:53:24.181Z,1003.59
2016-11-28T08:54:34.199Z,1003.57
2016-11-28T08:55:43.966Z,1003.64
2016-11-28T08:56:53.984Z,1003.71
2016-11-28T08:58:03.674Z,1003.8
2016-11-28T08:59:13.997Z,1003.82
2016-11-28T09:00:24.022Z,1003.79
2016-11-28T09:01:34.341Z,1003.84
2016-11-28T09:02:43.730Z,1003.89
2016-11-28T09:03:54.147Z,1003.91
2016-11-28T09:05:04.519Z,1003.97
2016-11-28T09:06:14.861Z,1003.97
2016-11-28T09:07:24.592Z,1004.02
2016-11-28T09:08:34.909Z,1004.08
2016-11-28T09:09:45.153Z,1004.14
2016-11-28T09:10:56.146Z,1004.17
2016-11-28T09:12:06.074Z,1004.19
2016-11-28T09:13:16.159Z,1004.11
2016-11-28T09:14:26.885Z,1004.17
2016-11-28T09:15:37.173Z,1004.14
2016-11-28T09:16:49.380Z,1004.05
2016-11-28T09:17:59.676Z,1004.08
2016-11-28T09:19:10.285Z,1004.17
2016-11-28T09:20:21.110Z,1004.22
2016-11-28T09:21:31.438Z,1004.11
2016-11-28T09:22:42.043Z,1004.13
2016-11-28T09:23:52.786Z,1004.11
2016-11-28T09:25:03.501Z,1004.07
2016-11-28T09:26:14.682Z,1004.14
2016-11-28T09:27:25.165Z,1004.09
2016-11-28T09:29:12.487Z,1004.12
2016-11-28T09:30:28.778Z,1004.13
2016-11-28T09:31:43.635Z,1004.05
2016-11-28T09:32:56.943Z,1004.06
2016-11-28T09:34:10.245Z,1004.1
2016-11-28T09:35:24.134Z,1004.15
2016-11-28T09:36:37.799Z,1004.08
2016-11-28T09:37:50.673Z,1004.18
2016-11-28T09:39:03.759Z,1004.12
2016-11-28T09:40:17.465Z,1004.09
2016-11-28T09:41:29.087Z,1004.01
2016-11-28T09:42:42.905Z,1004.05
2016-11-28T09:43:55.919Z,1004.11
2016-11-28T09:45:14.124Z,1004.12
2016-11-28T09:46:26.212Z,1004.12
2016-11-28T09:47:35.920Z,1004.08
2016-11-28T09:48:45.610Z,1004.1
2016-11-28T09:49:55.949Z,1004.09
2016-11-28T09:51:05.698Z,1004.14
2016-11-28T09:52:16.015Z,1004.07
2016-11-28T09:53:25.752Z,1004.17
2016-11-28T09:54:35.461Z,1004.04
2016-11-28T09:55:45.469Z,1004.12
2016-11-28T09:56:55.480Z,1004.09
2016-11-28T09:58:05.511Z,1004.15
2016-11-28T09:59:15.534Z,1004.17
2016-11-28T10:00:25.863Z,1004.12
2016-11-28T10:01:36.181Z,1004.17
2016-11-28T10:02:46.194Z,1004.19
2016-11-28T10:03:56.522Z,1004.24
2016-11-28T10:05:06.234Z,1004.21
2016-11-28T10:06:16.566Z,1004.11
2016-11-28T10:07:26.271Z,1004.23
2016-11-28T10:08:36.599Z,1004.27
2016-11-28T10:09:46.970Z,1004.32
2016-11-28T10:10:56.985Z,1004.36
2016-11-28T10:12:07.312Z,1004.32
2016-11-28T10:13:17.650Z,1004.34
2016-11-28T10:14:27.366Z,1004.37
2016-11-28T10:15:37.693Z,1004.4
2016-11-28T10:16:47.407Z,1004.4
2016-11-28T10:17:57.750Z,1004.38
2016-11-28T10:19:07.772Z,1004.4
2016-11-28T10:20:18.141Z,1004.38
2016-11-28T10:21:28.185Z,1004.39
2016-11-28T10:22:38.508Z,1004.41
2016-11-28T10:23:48.240Z,1004.45
2016-11-28T10:24:58.599Z,1004.43
2016-11-28T10:26:08.304Z,1004.44
2016-11-28T10:27:18.331Z,1004.47
2016-11-28T10:28:28.680Z,1004.45
2016-11-28T10:29:38.717Z,1004.54
2016-11-28T10:30:49.048Z,1004.48
2016-11-28T10:31:58.430Z,1004.44
2016-11-28T10:33:08.134Z,1004.56
2016-11-28T10:34:17.844Z,1004.5
2016-11-28T10:35:28.181Z,1004.56
2016-11-28T10:36:38.512Z,1004.53
2016-11-28T10:37:48.845Z,1004.57
2016-11-28T10:38:59.175Z,1004.52
2016-11-28T10:40:09.507Z,1004.5
2016-11-28T10:41:19.525Z,1004.48
2016-11-28T10:42:29.861Z,1004.46
2016-11-28T10:43:39.561Z,1004.49
2016-11-28T10:44:49.581Z,1004.51
2016-11-28T10:46:04.011Z,1004.5
2016-11-28T10:47:14.333Z,1004.52
2016-11-28T10:48:24.340Z,1004.52
2016-11-28T10:49:34.673Z,1004.59
2016-11-28T10:50:44.994Z,1004.58
2016-11-28T10:51:55.318Z,1004.54
2016-11-28T10:53:05.641Z,1004.59
2016-11-28T10:54:15.972Z,1004.62
2016-11-28T10:55:26.299Z,1004.7
2016-11-28T10:56:36.653Z,1004.69
2016-11-28T10:57:46.980Z,1004.69
2016-11-28T10:58:56.685Z,1004.78
2016-11-28T11:00:06.707Z,1004.75
2016-11-28T11:01:17.049Z,1004.75
2016-11-28T11:02:28.250Z,1004.79
2016-11-28T11:03:38.607Z,1004.86
2016-11-28T11:04:48.939Z,1004.7
2016-11-28T11:05:58.640Z,1004.72
2016-11-28T11:07:08.971Z,1004.63
2016-11-28T11:08:18.982Z,1004.68
2016-11-28T11:09:28.995Z,1004.67
2016-11-28T11:10:39.014Z,1004.74
2016-11-28T11:11:49.040Z,1004.68
2016-11-28T11:12:58.750Z,1004.65
2016-11-28T11:14:09.079Z,1004.68
2016-11-28T11:15:19.105Z,1004.75
2016-11-28T11:16:29.428Z,1004.7
2016-11-28T11:17:39.758Z,1004.73
2016-11-28T11:18:49.772Z,1004.72
2016-11-28T11:19:59.478Z,1004.67
2016-11-28T11:21:09.829Z,1004.69
2016-11-28T11:22:19.830Z,1004.71
2016-11-28T11:23:29.868Z,1004.73
2016-11-28T11:24:39.885Z,1004.62
2016-11-28T11:25:49.910Z,1004.76
2016-11-28T11:26:59.936Z,1004.67
2016-11-28T11:28:10.284Z,1004.68
2016-11-28T11:29:20.630Z,1004.73
2016-11-28T11:30:30.967Z,1004.8
2016-11-28T11:31:41.296Z,1004.7
2016-11-28T11:32:51.627Z,1004.79
2016-11-28T11:34:01.669Z,1004.68
2016-11-28T11:35:11.669Z,1004.79
2016-11-28T11:36:21.067Z,1004.81
2016-11-28T11:37:31.085Z,1004.77
2016-11-28T11:38:41.404Z,1004.71
2016-11-28T11:39:51.137Z,1004.67
2016-11-28T11:41:01.468Z,1004.76
2016-11-28T11:42:11.170Z,1004.7
2016-11-28T11:43:20.867Z,1004.76
2016-11-28T11:44:31.193Z,1004.71
2016-11-28T11:45:41.569Z,1004.64
2016-11-28T11:46:51.898Z,1004.74
2016-11-28T11:48:01.961Z,1004.69
2016-11-28T11:49:11.662Z,1004.77
2016-11-28T11:50:21.685Z,1004.65
2016-11-28T11:51:31.078Z,1004.73
2016-11-28T11:52:41.105Z,1004.68
2016-11-28T11:53:51.119Z,1004.65
2016-11-28T11:55:00.830Z,1004.73
2016-11-28T11:56:09.969Z,1004.75
2016-11-28T11:57:20.229Z,1004.75
2016-11-28T11:58:30.552Z,1004.85
2016-11-28T11:59:40.575Z,1004.77
2016-11-28T12:00:50.941Z,1004.78
2016-11-28T12:02:01.274Z,1004.74
2016-11-28T12:03:11.607Z,1004.86
2016-11-28T12:04:21.937Z,1004.89
2016-11-28T12:05:32.256Z,1004.86
2016-11-28T12:07:00.537Z,1004.86
2016-11-28T12:08:25.804Z,1004.91
2016-11-28T12:09:36.173Z,1004.82
2016-11-28T12:10:46.187Z,1004.86
2016-11-28T12:11:56.499Z,1004.83
2016-11-28T12:13:06.821Z,1004.77
2016-11-28T12:14:16.838Z,1004.95
2016-11-28T12:15:27.188Z,1004.93
2016-11-28T12:16:37.516Z,1004.96
2016-11-28T12:17:47.222Z,1004.81
2016-11-28T12:18:57.257Z,1005.01
2016-11-28T12:20:07.582Z,1004.89
2016-11-28T12:21:17.903Z,1004.82
2016-11-28T12:22:27.905Z,1004.82
2016-11-28T12:23:38.245Z,1004.88
2016-11-28T12:24:48.583Z,1004.92
2016-11-28T12:25:58.910Z,1004.88
2016-11-28T12:27:08.930Z,1004.92
2016-11-28T12:28:18.646Z,1004.88
2016-11-28T12:29:28.652Z,1004.86
2016-11-28T12:30:38.667Z,1004.96
2016-11-28T12:31:49.038Z,1004.94
2016-11-28T12:32:59.360Z,1004.97
2016-11-28T12:34:09.388Z,1005
2016-11-28T12:35:19.405Z,1005
2016-11-28T12:36:29.438Z,1005.04
2016-11-28T12:37:39.452Z,1005.03
2016-11-28T12:38:49.793Z,1005.12
2016-11-28T12:40:00.142Z,1005.05
2016-11-28T12:41:17.812Z,1005.05
2016-11-28T12:42:28.159Z,1005.13
2016-11-28T12:43:38.167Z,1005.09
2016-11-28T12:44:48.498Z,1005.02
2016-11-28T12:45:58.834Z,1004.99
2016-11-28T12:47:09.161Z,1005.01
2016-11-28T12:48:19.174Z,1005.01
2016-11-28T12:49:29.194Z,1005.08
2016-11-28T12:50:39.546Z,1005.04
2016-11-28T12:51:49.924Z,1005.13
2016-11-28T12:52:59.945Z,1005.11
2016-11-28T12:54:09.997Z,1005.11
2016-11-28T12:55:20.013Z,1005.09
2016-11-28T12:56:30.054Z,1005.14
2016-11-28T12:57:40.391Z,1005.09
2016-11-28T12:58:50.423Z,1005.19
2016-11-28T13:00:00.780Z,1005.15
2016-11-28T13:01:11.125Z,1005.09
2016-11-28T13:02:20.823Z,1005.19
2016-11-28T13:03:30.869Z,1005.16
2016-11-28T13:04:41.251Z,1005.17
2016-11-28T13:05:51.294Z,1005.17
2016-11-28T13:07:01.337Z,1005.26
2016-11-28T13:08:11.429Z,1005.23
2016-11-28T13:09:21.507Z,1005.36
2016-11-28T13:10:31.905Z,1005.38
2016-11-28T13:11:42.257Z,1005.33
2016-11-28T13:12:52.632Z,1005.3
2016-11-28T13:14:02.661Z,1005.48
2016-11-28T13:15:12.393Z,1005.41
2016-11-28T13:16:22.099Z,1005.34
2016-11-28T13:17:31.805Z,1005.4
2016-11-28T13:18:41.827Z,1005.49
2016-11-28T13:19:51.936Z,1005.34
2016-11-28T13:21:02.475Z,1005.35
2016-11-28T13:22:12.928Z,1005.36
2016-11-28T13:23:23.044Z,1005.31
2016-11-28T13:24:33.151Z,1005.39
2016-11-28T13:25:43.320Z,1005.35
2016-11-28T13:26:53.577Z,1005.36
2016-11-28T13:28:03.961Z,1005.37
2016-11-28T13:29:14.382Z,1005.4
2016-11-28T13:30:24.803Z,1005.41
2016-11-28T13:31:35.250Z,1005.42
2016-11-28T13:32:45.301Z,1005.42
2016-11-28T13:33:55.678Z,1005.46
2016-11-28T13:35:05.518Z,1005.53
2016-11-28T13:36:15.657Z,1005.48
2016-11-28T13:37:26.080Z,1005.44
2016-11-28T13:38:36.252Z,1005.49
2016-11-28T13:39:46.735Z,1005.55
2016-11-28T13:40:57.144Z,1005.55
2016-11-28T13:42:07.593Z,1005.43
2016-11-28T13:43:17.943Z,1005.57
2016-11-28T13:44:28.402Z,1005.56
2016-11-28T13:45:38.762Z,1005.5
2016-11-28T13:46:49.126Z,1005.53
2016-11-28T13:48:00.549Z,1005.52
2016-11-28T13:49:10.980Z,1005.52
2016-11-28T13:50:21.054Z,1005.55
2016-11-28T13:51:31.080Z,1005.51
2016-11-28T13:52:40.557Z,1005.51
2016-11-28T13:53:50.611Z,1005.63
2016-11-28T13:55:00.731Z,1005.61
2016-11-28T13:56:10.484Z,1005.58
2016-11-28T13:57:21.020Z,1005.62
2016-11-28T13:58:31.391Z,1005.56
2016-11-28T13:59:41.210Z,1005.64
2016-11-28T14:00:51.647Z,1005.65
2016-11-28T14:02:01.995Z,1005.65
2016-11-28T14:03:12.037Z,1005.64
2016-11-28T14:04:22.080Z,1005.63
2016-11-28T14:05:32.095Z,1005.64
2016-11-28T14:06:42.436Z,1005.54
2016-11-28T14:07:52.471Z,1005.63
2016-11-28T14:09:02.531Z,1005.68
2016-11-28T14:10:12.889Z,1005.65
2016-11-28T14:11:22.932Z,1005.84
2016-11-28T14:12:32.638Z,1005.64
2016-11-28T14:13:43.042Z,1005.69
2016-11-28T14:14:53.091Z,1005.7
2016-11-28T14:16:03.437Z,1005.66
2016-11-28T14:17:13.458Z,1005.72
2016-11-28T14:18:23.868Z,1005.72
2016-11-28T14:19:34.251Z,1005.77
2016-11-28T14:20:44.273Z,1005.85
2016-11-28T14:21:54.600Z,1005.87
2016-11-28T14:23:04.601Z,1005.81
2016-11-28T14:24:14.570Z,1005.83
2016-11-28T14:25:24.894Z,1005.76
2016-11-28T14:26:35.247Z,1005.84
2016-11-28T14:27:45.551Z,1005.89
2016-11-28T14:29:00.790Z,1005.81
2016-11-28T14:30:11.137Z,1005.9
2016-11-28T14:31:21.479Z,1005.88
2016-11-28T14:32:31.491Z,1005.94
2016-11-28T14:33:41.520Z,1005.94
2016-11-28T14:34:51.547Z,1006
2016-11-28T14:36:01.559Z,1005.95
2016-11-28T14:37:11.244Z,1005.98
2016-11-28T14:38:21.262Z,1005.93
2016-11-28T14:39:31.598Z,1005.99
2016-11-28T14:40:41.601Z,1006.13
2016-11-28T14:41:51.608Z,1006.1
2016-11-28T14:43:01.645Z,1006.02
2016-11-28T14:44:11.649Z,1006.04
2016-11-28T14:45:21.909Z,1006
2016-11-28T14:46:32.237Z,1005.96
2016-11-28T14:47:42.263Z,1006.04
2016-11-28T14:48:52.623Z,1006.03
2016-11-28T14:50:02.988Z,1006.01